sensor_id;sensor_type;location;lat;lon;timestamp;temperature;humidity
20891;DHT22;10605;52.968;8.844;2023-01-01T00:01:57;15.10;99.90
20891;DHT22;10605;52.968;8.844;2023-01-01T00:04:24;15.10;99.90
20891;DHT22;10605;52.968;8.844;2023-01-01T00:06:50;15.20;99.90
20891;DHT22;10605;52.968;8.844;2023-01-01T00:09:15;15.20;99.90
20891;DHT22;10605;52.968;8.844;2023-01-01T00:12:00;15.10;99.90
20891;DHT22;10605;52.968;8.844;2023-01-01T00:14:27;15.10;99.90
20891;DHT22;10605;52.968;8.844;2023-01-01T00:16:56;15.20;99.90
20891;DHT22;10605;52.968;8.844;2023-01-01T00:19:22;15.30;99.90
20891;DHT22;10605;52.968;8.844;2023-01-01T00:21:47;15.30;99.90
20891;DHT22;10605;52.968;8.844;2023-01-01T00:24:13;15.20;99.90
20891;DHT22;10605;52.968;8.844;2023-01-01T00:26:39;15.20;99.90
20891;DHT22;10605;52.968;8.844;2023-01-01T00:29:05;15.20;99.90
20891;DHT22;10605;52.968;8.844;2023-01-01T00:31:30;15.20;99.90
20891;DHT22;10605;52.968;8.844;2023-01-01T00:33:56;15.20;99.90
20891;DHT22;10605;52.968;8.844;2023-01-01T00:36:25;15.30;99.90
20891;DHT22;10605;52.968;8.844;2023-01-01T00:38:51;15.30;99.90
20891;DHT22;10605;52.968;8.844;2023-01-01T00:41:18;15.30;99.90
20891;DHT22;10605;52.968;8.844;2023-01-01T00:43:45;15.30;99.90
20891;DHT22;10605;52.968;8.844;2023-01-01T00:46:11;15.30;99.90
20891;DHT22;10605;52.968;8.844;2023-01-01T00:48:37;15.40;99.90
20891;DHT22;10605;52.968;8.844;2023-01-01T00:51:04;15.30;99.90
20891;DHT22;10605;52.968;8.844;2023-01-01T00:53:30;15.30;99.90
20891;DHT22;10605;52.968;8.844;2023-01-01T00:55:55;15.40;99.90
20891;DHT22;10605;52.968;8.844;2023-01-01T00:58:22;15.40;99.90
20891;DHT22;10605;52.968;8.844;2023-01-01T01:00:49;15.30;99.90
20891;DHT22;10605;52.968;8.844;2023-01-01T01:03:15;15.40;99.90
20891;DHT22;10605;52.968;8.844;2023-01-01T01:05:59;15.40;99.90
20891;DHT22;10605;52.968;8.844;2023-01-01T01:08:26;15.40;99.90
20891;DHT22;10605;52.968;8.844;2023-01-01T01:10:52;15.30;99.90
20891;DHT22;10605;52.968;8.844;2023-01-01T01:13:18;15.30;99.90
20891;DHT22;10605;52.968;8.844;2023-01-01T01:15:44;15.30;99.90
20891;DHT22;10605;52.968;8.844;2023-01-01T01:18:09;15.40;99.90
20891;DHT22;10605;52.968;8.844;2023-01-01T01:20:35;15.40;99.90
20891;DHT22;10605;52.968;8.844;2023-01-01T01:23:01;15.40;99.90
20891;DHT22;10605;52.968;8.844;2023-01-01T01:25:27;15.40;99.90
20891;DHT22;10605;52.968;8.844;2023-01-01T01:27:52;15.30;99.90
20891;DHT22;10605;52.968;8.844;2023-01-01T01:30:18;15.20;99.90
20891;DHT22;10605;52.968;8.844;2023-01-01T01:32:44;15.10;99.90
20891;DHT22;10605;52.968;8.844;2023-01-01T01:35:09;15.10;99.90
20891;DHT22;10605;52.968;8.844;2023-01-01T01:37:35;15.20;99.90
20891;DHT22;10605;52.968;8.844;2023-01-01T01:40:00;15.20;99.90
20891;DHT22;10605;52.968;8.844;2023-01-01T01:42:26;15.20;99.90
20891;DHT22;10605;52.968;8.844;2023-01-01T01:47:37;15.20;99.90
20891;DHT22;10605;52.968;8.844;2023-01-01T01:53:04;15.10;99.90
20891;DHT22;10605;52.968;8.844;2023-01-01T01:55:35;15.10;99.90
20891;DHT22;10605;52.968;8.844;2023-01-01T01:58:02;15.10;99.90
20891;DHT22;10605;52.968;8.844;2023-01-01T02:00:29;15.20;99.90
20891;DHT22;10605;52.968;8.844;2023-01-01T02:03:13;15.20;99.90
20891;DHT22;10605;52.968;8.844;2023-01-01T02:05:40;15.20;99.90
20891;DHT22;10605;52.968;8.844;2023-01-01T02:08:07;15.30;99.90
20891;DHT22;10605;52.968;8.844;2023-01-01T02:10:34;15.20;99.90
20891;DHT22;10605;52.968;8.844;2023-01-01T02:13:00;15.20;99.90
20891;DHT22;10605;52.968;8.844;2023-01-01T02:15:29;15.20;99.90
20891;DHT22;10605;52.968;8.844;2023-01-01T02:18:13;15.20;99.90
20891;DHT22;10605;52.968;8.844;2023-01-01T02:20:48;15.10;99.90
20891;DHT22;10605;52.968;8.844;2023-01-01T02:23:35;15.00;99.90
20891;DHT22;10605;52.968;8.844;2023-01-01T02:29:04;14.90;99.90
20891;DHT22;10605;52.968;8.844;2023-01-01T02:31:40;14.90;99.90
20891;DHT22;10605;52.968;8.844;2023-01-01T02:34:10;15.00;99.90
20891;DHT22;10605;52.968;8.844;2023-01-01T02:36:41;15.00;99.90
20891;DHT22;10605;52.968;8.844;2023-01-01T02:39:09;15.00;99.90
20891;DHT22;10605;52.968;8.844;2023-01-01T02:41:40;14.90;99.90
20891;DHT22;10605;52.968;8.844;2023-01-01T02:44:07;14.90;99.90
20891;DHT22;10605;52.968;8.844;2023-01-01T02:46:34;14.80;99.90
20891;DHT22;10605;52.968;8.844;2023-01-01T02:49:01;14.70;99.90
20891;DHT22;10605;52.968;8.844;2023-01-01T02:59:59;14.70;99.90
20891;DHT22;10605;52.968;8.844;2023-01-01T03:06:14;14.70;99.90
20891;DHT22;10605;52.968;8.844;2023-01-01T03:11:56;14.60;99.90
20891;DHT22;10605;52.968;8.844;2023-01-01T03:14:39;14.60;99.90
20891;DHT22;10605;52.968;8.844;2023-01-01T03:19:51;14.50;99.90
20891;DHT22;10605;52.968;8.844;2023-01-01T03:22:19;14.40;99.90
20891;DHT22;10605;52.968;8.844;2023-01-01T03:24:55;14.40;99.90
20891;DHT22;10605;52.968;8.844;2023-01-01T03:27:35;14.40;99.90
20891;DHT22;10605;52.968;8.844;2023-01-01T03:30:05;14.40;99.90
20891;DHT22;10605;52.968;8.844;2023-01-01T03:32:57;14.40;99.90
20891;DHT22;10605;52.968;8.844;2023-01-01T03:38:42;14.60;99.90
20891;DHT22;10605;52.968;8.844;2023-01-01T03:41:09;14.70;99.90
20891;DHT22;10605;52.968;8.844;2023-01-01T03:46:29;14.70;99.90
20891;DHT22;10605;52.968;8.844;2023-01-01T03:48:56;14.70;99.90
20891;DHT22;10605;52.968;8.844;2023-01-01T03:54:07;14.70;99.90
20891;DHT22;10605;52.968;8.844;2023-01-01T03:56:45;14.70;99.90
20891;DHT22;10605;52.968;8.844;2023-01-01T03:59:22;14.70;99.90
20891;DHT22;10605;52.968;8.844;2023-01-01T04:01:57;14.70;99.90
20891;DHT22;10605;52.968;8.844;2023-01-01T04:04:23;14.80;99.90
20891;DHT22;10605;52.968;8.844;2023-01-01T04:06:51;14.80;99.90
20891;DHT22;10605;52.968;8.844;2023-01-01T04:09:22;14.80;99.90
20891;DHT22;10605;52.968;8.844;2023-01-01T04:11:50;14.70;99.90
20891;DHT22;10605;52.968;8.844;2023-01-01T04:14:40;14.80;99.90
20891;DHT22;10605;52.968;8.844;2023-01-01T04:17:08;14.80;99.90
20891;DHT22;10605;52.968;8.844;2023-01-01T04:19:34;14.80;99.90
20891;DHT22;10605;52.968;8.844;2023-01-01T04:22:00;14.80;99.90
20891;DHT22;10605;52.968;8.844;2023-01-01T04:24:26;14.80;99.90
20891;DHT22;10605;52.968;8.844;2023-01-01T04:26:52;14.70;99.90
20891;DHT22;10605;52.968;8.844;2023-01-01T04:29:18;14.70;99.90
20891;DHT22;10605;52.968;8.844;2023-01-01T04:31:44;14.70;99.90
20891;DHT22;10605;52.968;8.844;2023-01-01T04:34:10;14.80;99.90
20891;DHT22;10605;52.968;8.844;2023-01-01T04:36:36;14.80;99.90
20891;DHT22;10605;52.968;8.844;2023-01-01T04:39:03;14.80;99.90
20891;DHT22;10605;52.968;8.844;2023-01-01T04:41:29;14.80;99.90
20891;DHT22;10605;52.968;8.844;2023-01-01T04:43:55;14.80;99.90
20891;DHT22;10605;52.968;8.844;2023-01-01T04:46:21;14.70;99.90
20891;DHT22;10605;52.968;8.844;2023-01-01T04:48:47;14.80;99.90
20891;DHT22;10605;52.968;8.844;2023-01-01T04:51:14;14.90;99.90
20891;DHT22;10605;52.968;8.844;2023-01-01T04:53:40;14.80;99.90
20891;DHT22;10605;52.968;8.844;2023-01-01T04:56:08;14.70;99.90
20891;DHT22;10605;52.968;8.844;2023-01-01T04:58:35;14.80;99.90
20891;DHT22;10605;52.968;8.844;2023-01-01T05:01:02;14.80;99.90
20891;DHT22;10605;52.968;8.844;2023-01-01T05:03:28;14.70;99.90
20891;DHT22;10605;52.968;8.844;2023-01-01T05:06:06;14.70;99.90
20891;DHT22;10605;52.968;8.844;2023-01-01T05:08:33;14.70;99.90
20891;DHT22;10605;52.968;8.844;2023-01-01T05:11:04;14.70;99.90
20891;DHT22;10605;52.968;8.844;2023-01-01T05:13:30;14.70;99.90
20891;DHT22;10605;52.968;8.844;2023-01-01T05:15:56;14.60;99.90
20891;DHT22;10605;52.968;8.844;2023-01-01T05:18:22;14.60;99.90
20891;DHT22;10605;52.968;8.844;2023-01-01T05:20:47;14.60;99.90
20891;DHT22;10605;52.968;8.844;2023-01-01T05:23:16;14.50;99.90
20891;DHT22;10605;52.968;8.844;2023-01-01T05:25:42;14.50;99.90
20891;DHT22;10605;52.968;8.844;2023-01-01T05:28:08;14.50;99.90
20891;DHT22;10605;52.968;8.844;2023-01-01T05:30:38;14.50;99.90
20891;DHT22;10605;52.968;8.844;2023-01-01T05:33:04;14.60;99.90
20891;DHT22;10605;52.968;8.844;2023-01-01T05:35:29;14.60;99.90
20891;DHT22;10605;52.968;8.844;2023-01-01T05:37:55;14.60;99.90
20891;DHT22;10605;52.968;8.844;2023-01-01T05:40:21;14.60;99.90
20891;DHT22;10605;52.968;8.844;2023-01-01T05:42:47;14.60;99.90
20891;DHT22;10605;52.968;8.844;2023-01-01T05:45:13;14.50;99.90
20891;DHT22;10605;52.968;8.844;2023-01-01T05:47:38;14.50;99.90
20891;DHT22;10605;52.968;8.844;2023-01-01T05:50:05;14.40;99.90
20891;DHT22;10605;52.968;8.844;2023-01-01T05:52:30;14.50;99.90
20891;DHT22;10605;52.968;8.844;2023-01-01T05:54:56;14.50;99.90
20891;DHT22;10605;52.968;8.844;2023-01-01T05:57:23;14.50;99.90
20891;DHT22;10605;52.968;8.844;2023-01-01T05:59:48;14.50;99.90
20891;DHT22;10605;52.968;8.844;2023-01-01T06:02:14;14.60;99.90
20891;DHT22;10605;52.968;8.844;2023-01-01T06:04:40;14.60;99.90
20891;DHT22;10605;52.968;8.844;2023-01-01T06:07:06;14.60;99.90
20891;DHT22;10605;52.968;8.844;2023-01-01T06:09:31;14.60;99.90
20891;DHT22;10605;52.968;8.844;2023-01-01T06:11:57;14.50;99.90
20891;DHT22;10605;52.968;8.844;2023-01-01T06:14:22;14.50;99.90
20891;DHT22;10605;52.968;8.844;2023-01-01T06:16:48;14.50;99.90
20891;DHT22;10605;52.968;8.844;2023-01-01T06:19:14;14.60;99.90
20891;DHT22;10605;52.968;8.844;2023-01-01T06:21:39;14.60;99.90
20891;DHT22;10605;52.968;8.844;2023-01-01T06:24:05;14.50;99.90
20891;DHT22;10605;52.968;8.844;2023-01-01T06:26:32;14.50;99.90
20891;DHT22;10605;52.968;8.844;2023-01-01T06:28:58;14.50;99.90
20891;DHT22;10605;52.968;8.844;2023-01-01T06:31:25;14.50;99.90
20891;DHT22;10605;52.968;8.844;2023-01-01T06:33:51;14.40;99.90
20891;DHT22;10605;52.968;8.844;2023-01-01T06:36:18;14.50;99.90
20891;DHT22;10605;52.968;8.844;2023-01-01T06:38:46;14.40;99.90
20891;DHT22;10605;52.968;8.844;2023-01-01T06:41:14;14.40;99.90
20891;DHT22;10605;52.968;8.844;2023-01-01T06:43:40;14.40;99.90
20891;DHT22;10605;52.968;8.844;2023-01-01T06:46:28;14.40;99.90
20891;DHT22;10605;52.968;8.844;2023-01-01T06:49:02;14.40;99.90
20891;DHT22;10605;52.968;8.844;2023-01-01T06:51:32;14.40;99.90
20891;DHT22;10605;52.968;8.844;2023-01-01T06:54:00;14.40;99.90
20891;DHT22;10605;52.968;8.844;2023-01-01T06:56:26;14.40;99.90
20891;DHT22;10605;52.968;8.844;2023-01-01T06:58:52;14.40;99.90
20891;DHT22;10605;52.968;8.844;2023-01-01T07:01:20;14.30;99.90
20891;DHT22;10605;52.968;8.844;2023-01-01T07:03:54;14.30;99.90
20891;DHT22;10605;52.968;8.844;2023-01-01T07:06:21;14.30;99.90
20891;DHT22;10605;52.968;8.844;2023-01-01T07:08:47;14.40;99.90
20891;DHT22;10605;52.968;8.844;2023-01-01T07:11:12;14.30;99.90
20891;DHT22;10605;52.968;8.844;2023-01-01T07:13:38;14.30;99.90
20891;DHT22;10605;52.968;8.844;2023-01-01T07:16:04;14.30;99.90
20891;DHT22;10605;52.968;8.844;2023-01-01T07:18:31;14.20;99.90
20891;DHT22;10605;52.968;8.844;2023-01-01T07:20:59;14.20;99.90
20891;DHT22;10605;52.968;8.844;2023-01-01T07:23:26;14.20;99.90
20891;DHT22;10605;52.968;8.844;2023-01-01T07:25:53;14.10;99.90
20891;DHT22;10605;52.968;8.844;2023-01-01T07:28:20;14.10;99.90
20891;DHT22;10605;52.968;8.844;2023-01-01T07:30:46;14.20;99.90
20891;DHT22;10605;52.968;8.844;2023-01-01T07:33:15;14.10;99.90
20891;DHT22;10605;52.968;8.844;2023-01-01T07:35:41;14.10;99.90
20891;DHT22;10605;52.968;8.844;2023-01-01T07:38:09;14.10;99.90
20891;DHT22;10605;52.968;8.844;2023-01-01T07:40:34;14.10;99.90
20891;DHT22;10605;52.968;8.844;2023-01-01T07:43:00;14.10;99.90
20891;DHT22;10605;52.968;8.844;2023-01-01T07:45:26;14.00;99.90
20891;DHT22;10605;52.968;8.844;2023-01-01T07:47:53;14.10;99.90
20891;DHT22;10605;52.968;8.844;2023-01-01T07:50:20;14.10;99.90
20891;DHT22;10605;52.968;8.844;2023-01-01T07:52:46;14.10;99.90
20891;DHT22;10605;52.968;8.844;2023-01-01T07:55:13;14.00;99.90
20891;DHT22;10605;52.968;8.844;2023-01-01T07:57:40;14.10;99.90
20891;DHT22;10605;52.968;8.844;2023-01-01T08:00:06;14.10;99.90
20891;DHT22;10605;52.968;8.844;2023-01-01T08:02:32;14.10;99.90
20891;DHT22;10605;52.968;8.844;2023-01-01T08:04:58;14.10;99.90
20891;DHT22;10605;52.968;8.844;2023-01-01T08:07:24;14.10;99.90
20891;DHT22;10605;52.968;8.844;2023-01-01T08:09:49;14.20;99.90
20891;DHT22;10605;52.968;8.844;2023-01-01T08:12:15;14.20;99.90
20891;DHT22;10605;52.968;8.844;2023-01-01T08:14:41;14.20;99.90
20891;DHT22;10605;52.968;8.844;2023-01-01T08:17:06;14.20;99.90
20891;DHT22;10605;52.968;8.844;2023-01-01T08:19:32;14.20;99.90
20891;DHT22;10605;52.968;8.844;2023-01-01T08:21:58;14.20;99.90
20891;DHT22;10605;52.968;8.844;2023-01-01T08:24:32;14.20;99.90
20891;DHT22;10605;52.968;8.844;2023-01-01T08:26:58;14.30;99.90
20891;DHT22;10605;52.968;8.844;2023-01-01T08:29:23;14.40;99.90
20891;DHT22;10605;52.968;8.844;2023-01-01T08:31:49;14.30;99.90
20891;DHT22;10605;52.968;8.844;2023-01-01T08:34:15;14.30;99.90
20891;DHT22;10605;52.968;8.844;2023-01-01T08:36:40;14.30;99.90
20891;DHT22;10605;52.968;8.844;2023-01-01T08:39:06;14.30;99.90
20891;DHT22;10605;52.968;8.844;2023-01-01T08:41:32;14.30;99.90
20891;DHT22;10605;52.968;8.844;2023-01-01T08:43:58;14.30;99.90
20891;DHT22;10605;52.968;8.844;2023-01-01T08:46:24;14.30;99.90
20891;DHT22;10605;52.968;8.844;2023-01-01T08:48:52;14.30;99.90
20891;DHT22;10605;52.968;8.844;2023-01-01T08:51:17;14.30;99.90
20891;DHT22;10605;52.968;8.844;2023-01-01T08:53:43;14.30;99.90
20891;DHT22;10605;52.968;8.844;2023-01-01T08:56:10;14.30;99.90
20891;DHT22;10605;52.968;8.844;2023-01-01T08:58:38;14.30;99.90
20891;DHT22;10605;52.968;8.844;2023-01-01T09:01:05;14.40;99.90
20891;DHT22;10605;52.968;8.844;2023-01-01T09:03:31;14.40;99.90
20891;DHT22;10605;52.968;8.844;2023-01-01T09:05:57;14.40;99.90
20891;DHT22;10605;52.968;8.844;2023-01-01T09:08:23;14.50;99.90
20891;DHT22;10605;52.968;8.844;2023-01-01T09:10:50;14.50;99.90
20891;DHT22;10605;52.968;8.844;2023-01-01T09:13:18;14.60;99.90
20891;DHT22;10605;52.968;8.844;2023-01-01T09:15:43;14.60;99.90
20891;DHT22;10605;52.968;8.844;2023-01-01T09:18:10;14.60;99.90
20891;DHT22;10605;52.968;8.844;2023-01-01T09:20:37;14.60;99.90
20891;DHT22;10605;52.968;8.844;2023-01-01T09:23:03;14.70;99.90
20891;DHT22;10605;52.968;8.844;2023-01-01T09:25:30;14.60;99.90
20891;DHT22;10605;52.968;8.844;2023-01-01T09:27:57;14.70;99.90
20891;DHT22;10605;52.968;8.844;2023-01-01T09:30:23;14.70;99.90
20891;DHT22;10605;52.968;8.844;2023-01-01T09:32:48;14.70;99.90
20891;DHT22;10605;52.968;8.844;2023-01-01T09:35:17;14.60;99.90
20891;DHT22;10605;52.968;8.844;2023-01-01T09:37:43;14.60;99.90
20891;DHT22;10605;52.968;8.844;2023-01-01T09:45:49;14.50;99.90
20891;DHT22;10605;52.968;8.844;2023-01-01T09:48:19;14.50;99.90
20891;DHT22;10605;52.968;8.844;2023-01-01T09:50:45;14.40;99.90
20891;DHT22;10605;52.968;8.844;2023-01-01T09:53:16;14.40;99.90
20891;DHT22;10605;52.968;8.844;2023-01-01T09:58:24;14.30;99.90
20891;DHT22;10605;52.968;8.844;2023-01-01T10:00:54;14.20;99.90
20891;DHT22;10605;52.968;8.844;2023-01-01T10:03:50;14.10;99.90
20891;DHT22;10605;52.968;8.844;2023-01-01T10:06:25;14.10;99.90
20891;DHT22;10605;52.968;8.844;2023-01-01T10:09:14;14.00;99.90
20891;DHT22;10605;52.968;8.844;2023-01-01T10:14:39;14.10;99.90
20891;DHT22;10605;52.968;8.844;2023-01-01T10:17:16;14.10;99.90
20891;DHT22;10605;52.968;8.844;2023-01-01T10:19:47;14.00;99.90
20891;DHT22;10605;52.968;8.844;2023-01-01T10:22:41;14.10;99.90
20891;DHT22;10605;52.968;8.844;2023-01-01T10:25:22;14.20;99.90
20891;DHT22;10605;52.968;8.844;2023-01-01T10:30:32;14.30;99.90
20891;DHT22;10605;52.968;8.844;2023-01-01T10:32:59;14.40;99.90
20891;DHT22;10605;52.968;8.844;2023-01-01T10:35:36;14.40;99.90
20891;DHT22;10605;52.968;8.844;2023-01-01T10:38:04;14.20;99.90
20891;DHT22;10605;52.968;8.844;2023-01-01T10:40:30;14.10;99.90
20891;DHT22;10605;52.968;8.844;2023-01-01T10:42:58;14.00;99.90
20891;DHT22;10605;52.968;8.844;2023-01-01T10:45:36;14.00;99.90
20891;DHT22;10605;52.968;8.844;2023-01-01T10:48:13;13.90;99.90
20891;DHT22;10605;52.968;8.844;2023-01-01T10:50:50;13.90;99.90
20891;DHT22;10605;52.968;8.844;2023-01-01T10:53:41;14.00;99.90
20891;DHT22;10605;52.968;8.844;2023-01-01T10:56:14;14.00;99.90
20891;DHT22;10605;52.968;8.844;2023-01-01T11:01:18;14.10;99.90
20891;DHT22;10605;52.968;8.844;2023-01-01T11:06:47;14.10;99.90
20891;DHT22;10605;52.968;8.844;2023-01-01T11:12:01;14.00;99.90
20891;DHT22;10605;52.968;8.844;2023-01-01T11:14:49;13.90;99.90
20891;DHT22;10605;52.968;8.844;2023-01-01T11:17:35;13.90;99.90
20891;DHT22;10605;52.968;8.844;2023-01-01T11:20:03;13.80;99.90
20891;DHT22;10605;52.968;8.844;2023-01-01T11:22:49;13.70;99.90
20891;DHT22;10605;52.968;8.844;2023-01-01T11:27:42;13.60;99.90
20891;DHT22;10605;52.968;8.844;2023-01-01T11:30:25;13.70;99.90
20891;DHT22;10605;52.968;8.844;2023-01-01T11:32:59;13.70;99.90
20891;DHT22;10605;52.968;8.844;2023-01-01T11:35:30;13.70;99.90
20891;DHT22;10605;52.968;8.844;2023-01-01T11:37:57;13.70;99.90
20891;DHT22;10605;52.968;8.844;2023-01-01T11:42:59;13.80;99.90
20891;DHT22;10605;52.968;8.844;2023-01-01T11:45:31;13.80;99.90
20891;DHT22;10605;52.968;8.844;2023-01-01T11:48:00;13.90;99.90
20891;DHT22;10605;52.968;8.844;2023-01-01T11:50:32;13.90;99.90
20891;DHT22;10605;52.968;8.844;2023-01-01T11:53:24;13.90;99.90
20891;DHT22;10605;52.968;8.844;2023-01-01T11:58:54;13.70;99.90
20891;DHT22;10605;52.968;8.844;2023-01-01T12:06:27;13.50;99.90
20891;DHT22;10605;52.968;8.844;2023-01-01T12:16:58;13.40;99.90
20891;DHT22;10605;52.968;8.844;2023-01-01T12:19:52;13.30;99.90
20891;DHT22;10605;52.968;8.844;2023-01-01T12:22:20;13.20;99.90
20891;DHT22;10605;52.968;8.844;2023-01-01T12:24:50;13.10;99.90
20891;DHT22;10605;52.968;8.844;2023-01-01T12:33:29;13.10;99.90
20891;DHT22;10605;52.968;8.844;2023-01-01T12:36:17;13.10;99.90
20891;DHT22;10605;52.968;8.844;2023-01-01T12:50:32;13.70;99.90
20891;DHT22;10605;52.968;8.844;2023-01-01T12:56:02;13.40;99.90
20891;DHT22;10605;52.968;8.844;2023-01-01T12:58:56;13.30;99.90
20891;DHT22;10605;52.968;8.844;2023-01-01T13:01:27;13.30;99.90
20891;DHT22;10605;52.968;8.844;2023-01-01T13:07:00;13.40;99.90
20891;DHT22;10605;52.968;8.844;2023-01-01T13:09:33;13.40;99.90
20891;DHT22;10605;52.968;8.844;2023-01-01T13:12:26;13.40;99.90
20891;DHT22;10605;52.968;8.844;2023-01-01T13:14:52;13.40;99.90
20891;DHT22;10605;52.968;8.844;2023-01-01T13:17:30;13.40;99.90
20891;DHT22;10605;52.968;8.844;2023-01-01T13:20:15;13.40;99.90
20891;DHT22;10605;52.968;8.844;2023-01-01T13:22:46;13.40;99.90
20891;DHT22;10605;52.968;8.844;2023-01-01T13:28:09;13.40;99.90
20891;DHT22;10605;52.968;8.844;2023-01-01T13:38:45;13.50;99.90
20891;DHT22;10605;52.968;8.844;2023-01-01T13:44:20;13.40;99.90
20891;DHT22;10605;52.968;8.844;2023-01-01T14:03:42;13.30;99.90
20891;DHT22;10605;52.968;8.844;2023-01-01T14:06:12;13.20;99.90
20891;DHT22;10605;52.968;8.844;2023-01-01T14:08:42;13.20;99.90
20891;DHT22;10605;52.968;8.844;2023-01-01T14:11:23;13.30;99.90
20891;DHT22;10605;52.968;8.844;2023-01-01T14:13:49;13.30;99.90
20891;DHT22;10605;52.968;8.844;2023-01-01T14:16:15;13.20;99.90
20891;DHT22;10605;52.968;8.844;2023-01-01T14:18:47;13.10;99.90
20891;DHT22;10605;52.968;8.844;2023-01-01T14:21:18;13.00;99.90
20891;DHT22;10605;52.968;8.844;2023-01-01T14:23:49;12.90;99.90
20891;DHT22;10605;52.968;8.844;2023-01-01T14:26:18;12.80;99.90
20891;DHT22;10605;52.968;8.844;2023-01-01T14:28:44;12.80;99.90
20891;DHT22;10605;52.968;8.844;2023-01-01T14:31:17;12.80;99.90
20891;DHT22;10605;52.968;8.844;2023-01-01T14:33:43;12.70;99.90
20891;DHT22;10605;52.968;8.844;2023-01-01T14:36:27;12.70;99.90
20891;DHT22;10605;52.968;8.844;2023-01-01T14:38:55;12.70;99.90
20891;DHT22;10605;52.968;8.844;2023-01-01T14:41:39;12.70;99.90
20891;DHT22;10605;52.968;8.844;2023-01-01T14:44:28;12.60;99.90
20891;DHT22;10605;52.968;8.844;2023-01-01T14:46:57;12.60;99.90
20891;DHT22;10605;52.968;8.844;2023-01-01T14:49:36;12.60;99.90
20891;DHT22;10605;52.968;8.844;2023-01-01T14:52:16;12.60;99.90
20891;DHT22;10605;52.968;8.844;2023-01-01T14:54:43;12.60;99.90
20891;DHT22;10605;52.968;8.844;2023-01-01T14:57:15;12.60;99.90
20891;DHT22;10605;52.968;8.844;2023-01-01T14:59:47;12.50;99.90
20891;DHT22;10605;52.968;8.844;2023-01-01T15:02:20;12.50;99.90
20891;DHT22;10605;52.968;8.844;2023-01-01T15:04:47;12.50;99.90
20891;DHT22;10605;52.968;8.844;2023-01-01T15:07:24;12.50;99.90
20891;DHT22;10605;52.968;8.844;2023-01-01T15:09:51;12.40;99.90
20891;DHT22;10605;52.968;8.844;2023-01-01T15:12:19;12.40;99.90
20891;DHT22;10605;52.968;8.844;2023-01-01T15:14:47;12.40;99.90
20891;DHT22;10605;52.968;8.844;2023-01-01T15:17:24;12.40;99.90
20891;DHT22;10605;52.968;8.844;2023-01-01T15:23:05;12.20;99.90
20891;DHT22;10605;52.968;8.844;2023-01-01T15:25:30;12.30;99.90
20891;DHT22;10605;52.968;8.844;2023-01-01T15:28:00;12.30;99.90
20891;DHT22;10605;52.968;8.844;2023-01-01T15:30:29;12.30;99.90
20891;DHT22;10605;52.968;8.844;2023-01-01T15:33:07;12.30;99.90
20891;DHT22;10605;52.968;8.844;2023-01-01T15:35:34;12.20;99.90
20891;DHT22;10605;52.968;8.844;2023-01-01T15:40:41;12.20;99.90
20891;DHT22;10605;52.968;8.844;2023-01-01T15:45:40;12.20;99.90
20891;DHT22;10605;52.968;8.844;2023-01-01T15:48:19;12.10;99.90
20891;DHT22;10605;52.968;8.844;2023-01-01T15:56:09;12.00;99.90
20891;DHT22;10605;52.968;8.844;2023-01-01T15:58:38;12.00;99.90
20891;DHT22;10605;52.968;8.844;2023-01-01T16:01:24;11.90;99.90
20891;DHT22;10605;52.968;8.844;2023-01-01T16:06:31;11.90;99.90
20891;DHT22;10605;52.968;8.844;2023-01-01T16:08:58;11.80;99.90
20891;DHT22;10605;52.968;8.844;2023-01-01T16:11:24;11.80;99.90
20891;DHT22;10605;52.968;8.844;2023-01-01T16:13:52;11.80;99.90
20891;DHT22;10605;52.968;8.844;2023-01-01T16:16:29;11.70;99.90
20891;DHT22;10605;52.968;8.844;2023-01-01T16:18:55;11.70;99.90
20891;DHT22;10605;52.968;8.844;2023-01-01T16:21:26;11.60;99.90
20891;DHT22;10605;52.968;8.844;2023-01-01T16:23:53;11.60;99.90
20891;DHT22;10605;52.968;8.844;2023-01-01T16:26:19;11.60;99.90
20891;DHT22;10605;52.968;8.844;2023-01-01T16:28:45;11.60;99.90
20891;DHT22;10605;52.968;8.844;2023-01-01T16:31:19;11.50;99.90
20891;DHT22;10605;52.968;8.844;2023-01-01T16:33:53;11.50;99.90
20891;DHT22;10605;52.968;8.844;2023-01-01T16:36:19;11.50;99.90
20891;DHT22;10605;52.968;8.844;2023-01-01T16:38:46;11.50;99.90
20891;DHT22;10605;52.968;8.844;2023-01-01T16:41:16;11.40;99.90
20891;DHT22;10605;52.968;8.844;2023-01-01T16:43:42;11.40;99.90
20891;DHT22;10605;52.968;8.844;2023-01-01T16:46:09;11.30;99.90
20891;DHT22;10605;52.968;8.844;2023-01-01T16:48:35;11.30;99.90
20891;DHT22;10605;52.968;8.844;2023-01-01T16:51:01;11.30;99.90
20891;DHT22;10605;52.968;8.844;2023-01-01T16:53:27;11.20;99.90
20891;DHT22;10605;52.968;8.844;2023-01-01T16:55:53;11.20;99.90
20891;DHT22;10605;52.968;8.844;2023-01-01T16:58:19;11.10;99.90
20891;DHT22;10605;52.968;8.844;2023-01-01T17:00:45;11.10;99.90
20891;DHT22;10605;52.968;8.844;2023-01-01T17:03:12;11.10;99.90
20891;DHT22;10605;52.968;8.844;2023-01-01T17:05:38;11.10;99.90
20891;DHT22;10605;52.968;8.844;2023-01-01T17:08:04;11.10;99.90
20891;DHT22;10605;52.968;8.844;2023-01-01T17:10:30;11.10;99.90
20891;DHT22;10605;52.968;8.844;2023-01-01T17:12:56;11.10;99.90
20891;DHT22;10605;52.968;8.844;2023-01-01T17:15:27;11.10;99.90
20891;DHT22;10605;52.968;8.844;2023-01-01T17:17:53;11.00;99.90
20891;DHT22;10605;52.968;8.844;2023-01-01T17:20:19;11.10;99.90
20891;DHT22;10605;52.968;8.844;2023-01-01T17:22:45;11.10;99.90
20891;DHT22;10605;52.968;8.844;2023-01-01T17:25:11;11.10;99.90
20891;DHT22;10605;52.968;8.844;2023-01-01T17:27:37;11.10;99.90
20891;DHT22;10605;52.968;8.844;2023-01-01T17:30:03;11.10;99.90
20891;DHT22;10605;52.968;8.844;2023-01-01T17:32:29;11.10;99.90
20891;DHT22;10605;52.968;8.844;2023-01-01T17:35:04;11.10;99.90
20891;DHT22;10605;52.968;8.844;2023-01-01T17:37:31;11.20;99.90
20891;DHT22;10605;52.968;8.844;2023-01-01T17:39:59;11.10;99.90
20891;DHT22;10605;52.968;8.844;2023-01-01T17:42:25;11.10;99.90
20891;DHT22;10605;52.968;8.844;2023-01-01T17:44:51;11.10;99.90
20891;DHT22;10605;52.968;8.844;2023-01-01T17:47:17;11.10;99.90
20891;DHT22;10605;52.968;8.844;2023-01-01T17:49:43;11.10;99.90
20891;DHT22;10605;52.968;8.844;2023-01-01T17:52:09;11.20;99.90
20891;DHT22;10605;52.968;8.844;2023-01-01T17:54:35;11.10;99.90
20891;DHT22;10605;52.968;8.844;2023-01-01T17:57:01;11.10;99.90
20891;DHT22;10605;52.968;8.844;2023-01-01T17:59:29;11.00;99.90
20891;DHT22;10605;52.968;8.844;2023-01-01T18:01:55;11.10;99.90
20891;DHT22;10605;52.968;8.844;2023-01-01T18:04:21;11.00;99.90
20891;DHT22;10605;52.968;8.844;2023-01-01T18:06:47;11.10;99.90
20891;DHT22;10605;52.968;8.844;2023-01-01T18:09:13;11.10;99.90
20891;DHT22;10605;52.968;8.844;2023-01-01T18:11:39;11.10;99.90
20891;DHT22;10605;52.968;8.844;2023-01-01T18:14:05;11.00;99.90